• Join FlightAware (Why Join?)
  • Login
  • US Flag 
12:13AM EST


 

Airport Tracker/Info


-or-


 

Live Flight TrackerFlight Track Log ✈ GPD95 ✈ 15-Jul-2013 ✈ KFMH - KTEB

Flight Track Log - Related Links

Times and Time Zones

All times are in EDT time to prevent confusion due to time zone crossing. See the GPD95 flight status page for this flight to view local times or setup timezone preferences in your user account.

Time Position Orientation Groundspeed Altitude Reporting Facility
EDT Latitude Longitude Course Direction KTS MPH feet Rate Location/Type
09:56AM 41.3192 -70.9419 254° West 133 153 4,200  Level Boston Center
09:57AM 41.3114 -70.9892 258° West 133 153 4,600 420 Climbing Boston Center
09:58AM 41.3058 -71.0364 261° West 131 151 5,100 480 Climbing Boston Center
09:59AM 41.2981 -71.0864 258° West 135 155 5,600 420 Climbing Boston Center
10:00AM 41.2925 -71.1306 261° West 131 151 6,000 420 Climbing Boston Center
10:01AM 41.2889 -71.1747 264° West 132 152 6,400 180 Climbing Boston Center
10:02AM 41.5937 -70.8311 254° West  Level Estimated
10:03AM 41.2811 -71.2414 261° West 140 161 6,500  Level Boston Center
10:03AM 41.2753 -71.2883 261° West 142 163 6,500  Level Boston Center
10:04AM 41.2633 -71.3411 253° West 142 163 6,500  Level Boston Center
10:05AM 41.2597 -71.3908 264° West 138 159 6,500  Level Boston Center
10:07AM 41.2519 -71.4517 260° West 139 160 6,500  Level Boston Center
10:07AM 41.2481 -71.4903 262° West 139 160 6,500  Level Boston Center
10:09AM 41.2403 -71.5456 259° West 139 160 6,500  Level Boston Center
10:10AM 41.2322 -71.5928 257° West 135 155 6,500  Level Boston Center
10:11AM 41.2242 -71.6481 259° West 138 159 6,500  Level Boston Center
10:12AM 41.2183 -71.7006 262° West 141 162 6,500  Level Boston Center
10:13AM 41.2125 -71.7503 261° West 137 158 6,500  Level Boston Center
10:14AM 41.2044 -71.8000 258° West 131 151 6,500  Level Boston Center
10:15AM 41.1983 -71.8525 261° West 140 161 6,500  Level Boston Center
10:16AM 41.1906 -71.9161 261° West 139 160 6,500  Level Boston Center
10:18AM 41.1667 -72.0167 253° West 145 167 6,600  Climbing New York TRACON
10:19AM 41.1667 -72.0667 270° West 143 165 6,600  Level New York TRACON
10:20AM 41.1667 -72.1167 270° West 143 165 6,600  Level New York TRACON
10:21AM 41.1500 -72.1833 252° West 145 167 6,600  Level New York TRACON
10:22AM 41.1500 -72.2333 270° West 145 167 6,600  Level New York TRACON
10:23AM 41.1333 -72.2833 246° West 144 166 6,600  Level New York TRACON
10:24AM 41.1333 -72.3333 270° West 148 170 6,600  Level New York TRACON
10:25AM 41.1167 -72.3833 246° West 146 168 6,600  Level New York TRACON
10:26AM 41.1167 -72.4333 270° West 146 168 6,600  Level New York TRACON
10:27AM 41.1167 -72.4833 270° West 146 168 6,600  Level New York TRACON
10:28AM 41.1000 -72.5500 252° West 145 167 6,600  Level New York TRACON
10:29AM 41.1000 -72.6000 270° West 145 167 6,600  Level New York TRACON
10:30AM 41.0833 -72.6500 246° West 147 169 6,600  Level New York TRACON
10:31AM 41.0833 -72.7000 270° West 148 170 6,600  Level New York TRACON
10:32AM 41.0667 -72.7500 246° West 148 170 6,600  Level New York TRACON
10:33AM 41.0667 -72.8000 270° West 150 173 6,600 -60 Level New York TRACON
10:34AM 41.0500 -72.8667 252° West 150 173 6,500 -240 Descending New York TRACON
10:35AM 41.0500 -72.9167 270° West 158 182 6,200 -300 Descending New York TRACON
10:36AM 41.0333 -72.9667 246° West 157 181 6,000 -300 Descending New York TRACON
10:37AM 41.0333 -73.0333 270° West 160 184 5,700 -300 Descending New York TRACON
10:38AM 41.0167 -73.0833 246° West 161 185 5,500 -300 Descending New York TRACON
10:39AM 41.0167 -73.1500 270° West 163 188 5,100 -360 Descending New York TRACON
10:40AM 41.0000 -73.2000 246° West 166 191 4,800 -360 Descending New York TRACON
10:41AM 41.0000 -73.2667 270° West 168 193 4,400 -480 Descending New York TRACON
10:42AM 40.9833 -73.3333 252° West 168 193 3,900 -540 Descending New York TRACON
10:43AM 40.9833 -73.3833 270° West 167 192 3,400 -540 Descending New York TRACON
10:44AM 40.9667 -73.4500 252° West 167 192 2,900 -420 Descending New York TRACON
10:45AM 40.9667 -73.5167 270° West 169 194 2,600 -240 Descending New York TRACON
10:46AM 40.9667 -73.5667 270° West 154 177 2,500 -60 Descending New York TRACON
10:47AM 40.9667 -73.6167 270° West 152 175 2,500 -60 Level New York TRACON
10:48AM 40.9667 -73.6667 270° West 154 177 2,400 -300 Descending New York TRACON
10:49AM 40.9667 -73.7333 270° West 158 182 2,000 -360 Descending New York TRACON
10:50AM 40.9667 -73.7833 270° West 156 180 1,700 -300 Descending New York TRACON
10:51AM 40.9500 -73.8500 252° West 153 176 1,400 -180 Descending New York TRACON
10:52AM 40.9333 -73.8833 237° Southwest 143 165 1,400  Level New York TRACON
10:53AM 40.9167 -73.9167 237° Southwest 146 168 1,400 -60 Level New York TRACON
10:54AM 40.9000 -73.9667 246° West 139 160 1,300 -300 Descending New York TRACON
10:55AM 40.8833 -74.0167 246° West 149 171 900 -420 Descending New York TRACON